Time,TemperatureF,DewpointF,PressureIn,WindDirection,WindDirectionDegrees,WindSpeedMPH,WindSpeedGustMPH,Humidity,HourlyPrecipIn,Conditions,Clouds,dailyrainin,SoftwareType,DateUTC
2013-10-16 00:00:00,62.1,62.2,30.08,NNE,19,3.0,5.0,100,0.00,CLR,SKC,0.00,WeatherDisplay:10.37,2013-10-16 04:00:00,
2013-10-16 00:30:00,62.2,62.2,30.07,NE,40,3.0,9.0,100,0.00,CLR,SKC,0.00,WeatherDisplay:10.37,2013-10-16 04:30:00,
2013-10-16 01:00:00,62.2,62.2,30.07,North,5,3.0,6.0,100,0.00,CLR,SKC,0.00,WeatherDisplay:10.37,2013-10-16 05:00:00,
2013-10-16 01:30:00,62.0,62.0,30.07,NNW,338,2.0,5.0,100,0.00,CLR,SKC,0.00,WeatherDisplay:10.37,2013-10-16 05:30:00,
2013-10-16 02:00:00,62.0,62.0,30.07,NNE,24,2.0,5.0,100,0.00,CLR,SKC,0.00,WeatherDisplay:10.37,2013-10-16 06:00:00,
2013-10-16 02:30:00,62.0,62.0,30.06,NNE,20,2.0,5.0,100,0.00,CLR,SKC,0.00,WeatherDisplay:10.37,2013-10-16 06:30:00,
2013-10-16 03:00:00,62.0,62.0,30.06,NNE,29,3.0,5.0,100,0.00,CLR,SKC,0.00,WeatherDisplay:10.37,2013-10-16 07:00:00,
2013-10-16 03:30:00,62.0,62.0,30.05,North,8,3.0,7.0,100,0.00,CLR,SKC,0.00,WeatherDisplay:10.37,2013-10-16 07:30:00,
2013-10-16 04:00:00,61.2,61.2,30.05,NNE,26,2.0,5.0,100,0.00,CLR,SKC,0.00,WeatherDisplay:10.37,2013-10-16 08:00:00,
2013-10-16 04:30:00,61.2,61.2,30.05,NNE,20,5.0,7.0,100,0.00,CLR,SKC,0.00,WeatherDisplay:10.37,2013-10-16 08:30:00,
2013-10-16 05:00:00,61.0,61.0,30.04,NNE,27,5.0,8.0,100,0.00,CLR,SKC,0.00,WeatherDisplay:10.37,2013-10-16 09:00:00,
2013-10-16 05:30:00,61.0,61.0,30.04,NNE,13,1.0,9.0,100,0.00,CLR,SKC,0.00,WeatherDisplay:10.37,2013-10-16 09:30:00,
2013-10-16 06:00:00,61.0,61.0,30.05,NNE,21,0.0,6.0,100,0.00,CLR,SKC,0.00,WeatherDisplay:10.37,2013-10-16 10:00:00,
2013-10-16 06:30:00,61.0,61.0,30.05,NNE,26,3.0,6.0,100,0.00,CLR,SKC,0.00,WeatherDisplay:10.37,2013-10-16 10:30:00,
2013-10-16 07:00:00,61.0,61.0,30.04,NNE,22,3.0,6.0,100,0.00,CLR,SKC,0.00,WeatherDisplay:10.37,2013-10-16 11:00:00,
2013-10-16 07:30:00,61.0,61.0,30.06,WNW,298,1.0,5.0,100,0.00,CLR,SKC,0.00,WeatherDisplay:10.37,2013-10-16 11:30:00,
2013-10-16 08:00:00,61.0,61.0,30.06,WNW,287,0.0,3.0,100,0.00,CLR,SKC,0.00,WeatherDisplay:10.37,2013-10-16 12:00:00,
2013-10-16 08:30:00,61.0,61.0,30.06,NE,42,1.0,4.0,100,0.00,CLR,SKC,0.00,WeatherDisplay:10.37,2013-10-16 12:30:00,
2013-10-16 09:00:00,62.0,62.0,30.06,NNE,25,2.0,5.0,100,0.00,CLR,SKC,0.00,WeatherDisplay:10.37,2013-10-16 13:00:00,
2013-10-16 09:30:00,62.2,62.2,30.07,NNW,333,0.0,6.0,100,0.00,CLR,SKC,0.00,WeatherDisplay:10.37,2013-10-16 13:30:00,
2013-10-16 10:00:00,63.2,63.2,30.05,NNE,26,3.0,5.0,100,0.00,CLR,SKC,0.00,WeatherDisplay:10.37,2013-10-16 14:00:00,
2013-10-16 10:30:00,66.0,66.0,30.04,NW,318,0.0,6.0,100,0.00,CLR,SKC,0.00,WeatherDisplay:10.37,2013-10-16 14:30:00,
2013-10-16 11:00:00,67.2,67.2,30.02,NNE,13,0.0,6.0,100,0.00,CLR,SKC,0.00,WeatherDisplay:10.37,2013-10-16 15:00:00,
2013-10-16 11:30:00,68.0,65.9,30.02,South,170,0.0,6.0,93,0.00,CLR,SKC,0.00,WeatherDisplay:10.37,2013-10-16 15:30:00,
2013-10-16 12:00:00,69.0,65.3,30.01,NNW,342,0.0,7.0,88,0.00,CLR,SKC,0.00,WeatherDisplay:10.37,2013-10-16 16:00:00,
2013-10-16 12:30:00,68.0,65.3,29.99,East,85,2.0,6.0,91,0.00,CLR,SKC,0.00,WeatherDisplay:10.37,2013-10-16 16:30:00,
2013-10-16 13:00:00,69.0,65.6,29.99,SSE,165,0.0,5.0,89,0.00,CLR,SKC,0.00,WeatherDisplay:10.37,2013-10-16 17:00:00,
2013-10-16 13:30:00,69.2,65.5,29.98,SSE,157,1.0,4.0,88,0.00,CLR,SKC,0.00,WeatherDisplay:10.37,2013-10-16 17:30:00,
2013-10-16 14:00:00,69.0,66.3,29.97,SSE,157,0.0,2.0,91,0.00,CLR,SKC,0.00,WeatherDisplay:10.37,2013-10-16 18:00:00,
2013-10-16 14:30:00,68.2,66.4,29.97,SSW,202,0.0,3.0,94,0.00,CLR,SKC,0.00,WeatherDisplay:10.37,2013-10-16 18:30:00,
2013-10-16 15:00:00,68.0,66.2,29.96,WNW,292,1.0,3.0,94,0.00,CLR,SKC,0.00,WeatherDisplay:10.37,2013-10-16 19:00:00,
2013-10-16 15:30:00,69.0,66.3,29.96,WNW,292,0.0,3.0,91,0.00,CLR,SKC,0.00,WeatherDisplay:10.37,2013-10-16 19:30:00,
2013-10-16 16:00:00,70.0,67.3,29.95,SSE,157,0.0,4.0,91,0.00,CLR,SKC,0.00,WeatherDisplay:10.37,2013-10-16 20:00:00,
2013-10-16 16:30:00,70.0,67.3,29.94,SSE,157,0.0,3.0,91,0.00,CLR,SKC,0.00,WeatherDisplay:10.37,2013-10-16 20:30:00,
2013-10-16 17:00:00,69.0,66.6,29.94,South,180,0.0,3.0,92,0.00,CLR,SKC,0.00,WeatherDisplay:10.37,2013-10-16 21:00:00,
2013-10-16 17:30:00,68.2,66.7,29.95,South,180,1.0,4.0,95,0.00,CLR,SKC,0.00,WeatherDisplay:10.37,2013-10-16 21:30:00,
2013-10-16 18:00:00,67.2,66.0,29.95,SSE,157,0.0,5.0,96,0.00,CLR,SKC,0.00,WeatherDisplay:10.37,2013-10-16 22:00:00,
2013-10-16 18:30:00,65.2,65.2,29.96,SSE,157,0.0,0.0,100,0.00,CLR,SKC,0.00,WeatherDisplay:10.37,2013-10-16 22:30:00,
2013-10-16 19:00:00,63.2,63.2,29.97,SSE,157,0.0,0.0,100,0.00,CLR,SKC,0.00,WeatherDisplay:10.37,2013-10-16 23:00:00,
2013-10-16 19:30:00,62.0,62.0,29.99,SSE,157,0.0,0.0,100,0.00,CLR,SKC,0.00,WeatherDisplay:10.37,2013-10-16 23:30:00,
2013-10-16 20:00:00,62.0,62.0,29.99,SSE,157,0.0,1.0,100,0.00,CLR,SKC,0.00,WeatherDisplay:10.37,2013-10-17 00:00:00,
2013-10-16 20:30:00,62.0,62.0,30.00,SSE,157,0.0,0.0,100,0.00,CLR,SKC,0.00,WeatherDisplay:10.37,2013-10-17 00:30:00,
2013-10-16 21:00:00,61.2,61.2,30.00,SSE,157,0.0,1.0,100,0.00,CLR,SKC,0.00,WeatherDisplay:10.37,2013-10-17 01:00:00,
2013-10-16 21:30:00,61.0,61.0,30.01,SSE,157,0.0,0.0,100,0.00,CLR,SKC,0.00,WeatherDisplay:10.37,2013-10-17 01:30:00,
2013-10-16 22:00:00,60.2,60.2,30.01,SSE,157,0.0,0.0,100,0.00,CLR,SKC,0.00,WeatherDisplay:10.37,2013-10-17 02:00:00,
2013-10-16 22:30:00,60.0,60.0,30.01,SSE,157,0.0,0.0,100,0.00,CLR,SKC,0.00,WeatherDisplay:10.37,2013-10-17 02:30:00,
2013-10-16 23:00:00,59.2,59.2,30.01,SSE,157,0.0,0.0,100,0.00,CLR,SKC,0.00,WeatherDisplay:10.37,2013-10-17 03:00:00,
2013-10-16 23:30:00,59.0,59.0,30.01,SSE,157,0.0,0.0,100,0.00,CLR,SKC,0.00,WeatherDisplay:10.37,2013-10-17 03:30:00,